createdAt,value
2018-12-19T00:01:27.726Z,260.70
2018-12-19T00:03:56.716Z,249.00
2018-12-19T00:06:25.487Z,231.23
2018-12-19T00:08:54.225Z,237.23
2018-12-19T00:11:22.873Z,240.40
2018-12-19T00:13:51.824Z,225.63
2018-12-19T00:16:20.426Z,253.20
2018-12-19T00:18:49.246Z,223.33
2018-12-19T00:21:18.042Z,220.23
2018-12-19T00:23:46.811Z,242.57
2018-12-19T00:26:15.499Z,228.27
2018-12-19T00:28:44.277Z,224.63
2018-12-19T00:31:12.936Z,226.00
2018-12-19T00:33:41.636Z,215.10
2018-12-19T00:36:10.320Z,214.67
2018-12-19T00:38:39.223Z,200.17
2018-12-19T00:41:07.892Z,184.20
2018-12-19T00:43:36.571Z,192.33
2018-12-19T00:46:05.261Z,185.80
2018-12-19T00:48:34.171Z,181.43
2018-12-19T00:51:02.978Z,199.73
2018-12-19T00:53:31.737Z,187.90
2018-12-19T00:56:00.535Z,162.10
2018-12-19T00:58:29.549Z,182.40
2018-12-19T01:00:58.189Z,159.87
2018-12-19T01:03:26.898Z,176.13
2018-12-19T01:05:55.586Z,173.80
2018-12-19T01:08:24.249Z,162.13
2018-12-19T01:10:52.963Z,157.00
2018-12-19T01:13:21.938Z,154.47
2018-12-19T01:15:50.526Z,162.67
2018-12-19T01:18:19.197Z,156.17
2018-12-19T01:20:48.004Z,160.40
2018-12-19T01:23:16.730Z,144.07
2018-12-19T01:25:45.429Z,158.30
2018-12-19T01:28:14.145Z,121.33
2018-12-19T01:30:42.946Z,133.40
2018-12-19T01:33:11.630Z,152.30
2018-12-19T01:35:40.293Z,138.00
2018-12-19T01:38:09.005Z,139.93
2018-12-19T01:40:37.653Z,130.63
2018-12-19T01:43:06.363Z,139.93
2018-12-19T01:45:35.032Z,128.17
2018-12-19T01:48:03.888Z,133.23
2018-12-19T01:50:32.525Z,123.10
2018-12-19T01:53:01.353Z,119.63
2018-12-19T01:55:30.014Z,111.73
2018-12-19T01:57:58.690Z,120.47
2018-12-19T02:00:34.030Z,127.47
2018-12-19T02:03:02.811Z,132.10
2018-12-19T02:05:32.522Z,131.13
2018-12-19T02:08:01.196Z,126.63
2018-12-19T02:10:30.065Z,140.47
2018-12-19T02:12:58.758Z,134.57
2018-12-19T02:15:27.570Z,127.90
2018-12-19T02:17:56.229Z,132.47
2018-12-19T02:20:24.929Z,147.23
2018-12-19T02:22:53.641Z,141.90
2018-12-19T02:25:22.515Z,144.27
2018-12-19T02:27:51.201Z,149.23
2018-12-19T02:30:19.988Z,149.33
2018-12-19T02:32:48.668Z,149.30
2018-12-19T02:35:17.334Z,143.53
2018-12-19T02:37:46.049Z,151.97
2018-12-19T02:40:14.927Z,145.20
2018-12-19T02:42:43.739Z,142.47
2018-12-19T02:45:12.490Z,100.07
2018-12-19T02:47:41.192Z,159.73
2018-12-19T02:50:09.874Z,141.33
2018-12-19T02:52:38.679Z,156.67
2018-12-19T02:55:07.451Z,145.50
2018-12-19T02:57:36.159Z,160.17
2018-12-19T03:00:05.889Z,149.93
2018-12-19T03:02:34.502Z,133.87
2018-12-19T03:05:03.363Z,150.80
2018-12-19T03:07:32.005Z,135.47
2018-12-19T03:10:00.674Z,128.07
2018-12-19T03:12:29.391Z,122.77
2018-12-19T03:14:58.049Z,152.40
2018-12-19T03:17:26.986Z,158.40
2018-12-19T03:19:55.615Z,142.07
2018-12-19T03:22:24.296Z,135.67
2018-12-19T03:24:53.017Z,156.37
2018-12-19T03:27:21.660Z,138.63
2018-12-19T03:29:50.358Z,144.83
2018-12-19T03:32:19.040Z,133.27
2018-12-19T03:34:47.726Z,140.63
2018-12-19T03:37:16.419Z,145.77
2018-12-19T03:39:50.192Z,127.63
2018-12-19T03:42:15.827Z,131.30
2018-12-19T03:51:41.941Z,114.03
2018-12-19T03:54:10.697Z,136.83
2018-12-19T03:56:39.640Z,120.90
2018-12-19T03:59:08.380Z,121.83
2018-12-19T04:01:37.283Z,132.73
2018-12-19T04:04:05.953Z,115.93
2018-12-19T04:06:34.641Z,125.37
2018-12-19T04:09:04.124Z,124.83
2018-12-19T04:11:32.859Z,117.40
2018-12-19T04:14:01.493Z,129.43
2018-12-19T04:16:30.232Z,121.53
2018-12-19T04:18:58.906Z,133.63
2018-12-19T04:21:27.568Z,108.57
2018-12-19T04:23:56.253Z,107.87
2018-12-19T04:26:24.911Z,105.80
2018-12-19T04:28:53.606Z,114.07
2018-12-19T04:31:22.505Z,119.67
2018-12-19T04:33:51.296Z,99.87
2018-12-19T04:36:20.083Z,97.50
2018-12-19T04:38:49.099Z,99.13
2018-12-19T04:41:17.752Z,114.67
2018-12-19T04:43:46.423Z,90.73
2018-12-19T04:46:15.441Z,94.17
2018-12-19T04:48:44.223Z,86.70
2018-12-19T04:51:12.897Z,92.50
2018-12-19T04:53:41.596Z,99.83
2018-12-19T04:56:10.278Z,70.67
2018-12-19T04:58:38.969Z,99.33
2018-12-19T05:01:07.650Z,105.03
2018-12-19T05:03:36.501Z,96.47
2018-12-19T05:06:05.201Z,74.97
2018-12-19T05:08:33.888Z,85.03
2018-12-19T05:11:02.593Z,61.13
2018-12-19T05:13:31.286Z,72.97
2018-12-19T05:16:00.013Z,83.63
2018-12-19T05:18:28.685Z,54.67
2018-12-19T05:20:57.452Z,87.70
2018-12-19T05:23:26.123Z,72.03
2018-12-19T05:25:54.794Z,65.93
2018-12-19T05:28:23.656Z,72.97
2018-12-19T05:30:52.286Z,85.87
2018-12-19T05:33:20.950Z,71.30
2018-12-19T05:35:49.670Z,69.10
2018-12-19T05:38:18.320Z,86.90
2018-12-19T05:40:47.011Z,42.87
2018-12-19T05:43:15.685Z,67.57
2018-12-19T05:45:44.395Z,72.47
2018-12-19T05:48:13.078Z,67.60
2018-12-19T05:50:41.669Z,74.73
2018-12-19T05:53:10.334Z,65.23
2018-12-19T05:55:39.010Z,64.97
2018-12-19T05:58:07.736Z,68.30
2018-12-19T06:00:36.506Z,59.97
2018-12-19T06:03:05.191Z,52.20
2018-12-19T06:05:33.893Z,56.20
2018-12-19T06:08:02.593Z,60.30
2018-12-19T06:10:32.265Z,59.00
2018-12-19T06:13:00.954Z,52.20
2018-12-19T06:15:29.944Z,51.23
2018-12-19T06:17:58.686Z,40.07
2018-12-19T06:20:27.443Z,36.50
2018-12-19T06:22:56.206Z,34.50
2018-12-19T06:25:24.969Z,38.00
2018-12-19T06:27:53.874Z,32.03
2018-12-19T06:30:22.991Z,33.57
2018-12-19T06:32:52.275Z,34.07
2018-12-19T06:35:20.981Z,26.43
2018-12-19T06:37:49.662Z,34.90
2018-12-19T06:40:18.375Z,32.33
2018-12-19T06:42:47.145Z,32.17
2018-12-19T06:45:15.917Z,37.87
2018-12-19T06:47:44.781Z,34.00
2018-12-19T06:50:13.412Z,38.13
2018-12-19T06:52:42.260Z,28.80
2018-12-19T06:55:11.055Z,34.77
2018-12-19T06:57:39.827Z,36.10
2018-12-19T07:00:08.743Z,39.37
2018-12-19T07:02:37.457Z,38.87
2018-12-19T07:05:06.494Z,38.87
2018-12-19T07:07:35.234Z,44.17
2018-12-19T07:10:04.145Z,43.17
2018-12-19T07:12:32.975Z,41.50
2018-12-19T07:15:01.746Z,51.63
2018-12-19T07:17:30.481Z,53.20
2018-12-19T07:19:59.159Z,66.73
2018-12-19T07:22:27.823Z,73.33
2018-12-19T07:24:56.506Z,78.77
2018-12-19T07:27:25.473Z,86.33
2018-12-19T07:29:54.197Z,65.67
2018-12-19T07:32:23.090Z,62.30
2018-12-19T07:34:51.726Z,100.07
2018-12-19T07:37:20.437Z,85.93
2018-12-19T07:39:49.225Z,113.63
2018-12-19T07:42:17.935Z,103.40
2018-12-19T07:44:46.654Z,133.17
2018-12-19T07:47:15.414Z,134.10
2018-12-19T07:49:44.150Z,100.87
2018-12-19T07:52:13.115Z,132.17
2018-12-19T07:54:41.878Z,100.50
2018-12-19T07:57:10.693Z,88.33
2018-12-19T07:59:39.453Z,92.87
2018-12-19T08:02:08.186Z,99.00
2018-12-19T08:04:37.120Z,118.53
2018-12-19T08:07:05.917Z,123.10
2018-12-19T08:09:34.621Z,114.97
2018-12-19T08:12:03.302Z,116.57
2018-12-19T08:14:32.089Z,91.70
2018-12-19T08:17:00.857Z,55.80
2018-12-19T08:19:29.711Z,67.73
2018-12-19T08:21:58.410Z,96.03
2018-12-19T08:24:27.113Z,96.23
2018-12-19T08:26:55.877Z,73.40
2018-12-19T08:29:24.551Z,79.17
2018-12-19T08:31:53.269Z,93.87
2018-12-19T08:34:22.137Z,89.57
2018-12-19T08:36:50.817Z,52.93
2018-12-19T08:39:19.906Z,60.07
2018-12-19T08:41:49.002Z,78.53
2018-12-19T08:44:17.680Z,92.17
2018-12-19T08:46:46.497Z,109.10
2018-12-19T08:49:15.149Z,80.63
2018-12-19T08:51:43.869Z,71.03
2018-12-19T08:54:12.708Z,87.70
2018-12-19T08:56:41.628Z,63.80
2018-12-19T08:59:10.303Z,117.97
2018-12-19T09:01:39.096Z,113.93
2018-12-19T09:04:07.895Z,87.30
2018-12-19T09:06:36.679Z,97.47
2018-12-19T09:09:07.133Z,94.40
2018-12-19T09:11:35.916Z,108.40
2018-12-19T09:14:04.605Z,92.30
2018-12-19T09:16:33.345Z,127.00
2018-12-19T09:19:02.175Z,114.00
2018-12-19T09:21:30.811Z,104.97
2018-12-19T09:23:59.615Z,105.67
2018-12-19T09:26:29.410Z,103.27
2018-12-19T09:28:58.092Z,92.37
2018-12-19T09:31:26.777Z,100.03
2018-12-19T09:33:55.469Z,65.17
2018-12-19T09:36:24.319Z,84.57
2018-12-19T09:38:52.949Z,68.00
2018-12-19T09:41:21.741Z,58.90
2018-12-19T09:43:50.435Z,85.60
2018-12-19T09:46:19.122Z,61.63
2018-12-19T09:48:47.825Z,84.50
2018-12-19T09:51:16.832Z,93.43
2018-12-19T09:53:45.502Z,73.30
2018-12-19T09:56:14.242Z,81.60
2018-12-19T09:58:42.985Z,61.00
2018-12-19T10:01:11.813Z,88.77
2018-12-19T10:03:40.515Z,39.93
2018-12-19T10:06:09.227Z,66.60
2018-12-19T10:08:38.033Z,64.03
2018-12-19T10:11:06.670Z,54.40
2018-12-19T10:13:35.381Z,44.90
2018-12-19T10:16:04.281Z,44.53
2018-12-19T10:18:33.565Z,58.10
2018-12-19T10:21:02.243Z,61.27
2018-12-19T10:23:30.916Z,76.87
2018-12-19T10:26:05.056Z,56.63
2018-12-19T10:28:34.467Z,63.10
2018-12-19T10:31:04.105Z,40.63
2018-12-19T10:33:32.794Z,73.17
2018-12-19T10:36:01.607Z,71.20
2018-12-19T10:38:30.296Z,53.07
2018-12-19T10:40:59.300Z,41.67
2018-12-19T10:43:28.013Z,56.80
2018-12-19T10:45:56.834Z,47.60
2018-12-19T10:48:25.455Z,75.07
2018-12-19T10:50:54.186Z,32.73
2018-12-19T10:53:22.834Z,49.03
2018-12-19T10:55:51.531Z,40.77
2018-12-19T10:58:20.409Z,34.43
2018-12-19T11:00:54.312Z,44.30
2018-12-19T11:03:23.030Z,74.10
2018-12-19T11:05:54.517Z,46.07
2018-12-19T11:08:22.415Z,51.17
2018-12-19T11:10:51.387Z,70.43
2018-12-19T11:13:20.066Z,56.40
2018-12-19T11:15:48.789Z,60.00
2018-12-19T11:18:17.568Z,46.43
2018-12-19T11:20:46.381Z,61.20
2018-12-19T11:23:16.274Z,47.50
2018-12-19T11:25:45.449Z,43.03
2018-12-19T11:28:14.232Z,45.30
2018-12-19T11:30:43.806Z,39.43
2018-12-19T11:33:12.453Z,54.90
2018-12-19T11:35:41.186Z,52.20
2018-12-19T11:38:09.814Z,59.63
2018-12-19T11:40:38.498Z,47.23
2018-12-19T11:43:07.203Z,49.77
2018-12-19T11:45:35.957Z,48.10
2018-12-19T11:48:05.149Z,64.30
2018-12-19T11:50:33.953Z,42.63
2018-12-19T11:53:02.722Z,61.40
2018-12-19T11:55:31.528Z,49.53
2018-12-19T11:58:00.243Z,64.97
2018-12-19T12:00:28.877Z,54.43
2018-12-19T12:02:57.604Z,57.03
2018-12-19T12:05:26.242Z,46.30
2018-12-19T12:07:54.966Z,67.67
2018-12-19T12:10:23.638Z,49.23
2018-12-19T12:12:52.294Z,70.23
2018-12-19T12:15:20.980Z,49.03
2018-12-19T12:17:49.691Z,54.23
2018-12-19T12:20:18.467Z,44.87
2018-12-19T12:22:47.342Z,40.30
2018-12-19T12:25:16.167Z,54.27
2018-12-19T12:27:44.953Z,46.87
2018-12-19T12:30:13.676Z,47.93
2018-12-19T12:32:42.421Z,60.20
2018-12-19T12:35:11.260Z,38.73
2018-12-19T12:37:39.994Z,49.23
2018-12-19T12:40:09.746Z,40.07
2018-12-19T12:42:38.493Z,53.00
2018-12-19T12:45:07.618Z,39.53
2018-12-19T12:47:36.342Z,61.63
2018-12-19T12:50:06.150Z,71.87
2018-12-19T12:52:34.772Z,50.87
2018-12-19T12:55:03.602Z,55.77
2018-12-19T12:57:33.438Z,69.30
2018-12-19T13:00:02.243Z,39.80
2018-12-19T13:02:30.992Z,54.57
2018-12-19T13:04:59.597Z,41.67
2018-12-19T13:07:28.328Z,56.60
2018-12-19T13:09:57.119Z,43.13
2018-12-19T13:12:25.982Z,56.03
2018-12-19T13:14:54.660Z,60.43
2018-12-19T13:18:52.547Z,44.67
2018-12-19T13:21:21.321Z,37.10
2018-12-19T13:23:50.013Z,56.33
2018-12-19T13:26:18.661Z,38.67
2018-12-19T13:28:47.312Z,48.07
2018-12-19T13:31:16.282Z,28.07
2018-12-19T13:33:45.173Z,52.90
2018-12-19T13:36:13.864Z,45.17
2018-12-19T13:38:42.647Z,50.90
2018-12-19T13:41:11.290Z,32.10
2018-12-19T13:43:40.017Z,33.63
2018-12-19T13:46:08.689Z,39.37
2018-12-19T13:48:37.398Z,37.83
2018-12-19T13:51:06.095Z,32.97
2018-12-19T13:53:34.781Z,39.60
2018-12-19T13:56:03.434Z,32.20
2018-12-19T13:58:32.797Z,65.53
2018-12-19T14:01:01.607Z,62.70
2018-12-19T14:03:30.294Z,50.10
2018-12-19T14:05:59.194Z,60.47
2018-12-19T14:08:27.857Z,54.40
2018-12-19T14:10:56.577Z,59.40
2018-12-19T14:13:25.462Z,61.60
2018-12-19T14:15:54.121Z,36.13
2018-12-19T14:18:22.850Z,55.00
2018-12-19T14:20:51.673Z,68.20
2018-12-19T14:23:20.280Z,72.40
2018-12-19T14:25:49.186Z,52.77
2018-12-19T14:28:17.854Z,66.27
2018-12-19T14:30:47.064Z,59.83
2018-12-19T14:33:16.066Z,69.93
2018-12-19T14:35:44.852Z,42.23
2018-12-19T14:38:13.511Z,54.47
2018-12-19T14:40:42.209Z,38.03
2018-12-19T14:43:11.078Z,70.97
2018-12-19T14:45:39.867Z,62.30
2018-12-19T14:48:08.606Z,50.17
2018-12-19T14:50:37.368Z,55.57
2018-12-19T14:53:06.078Z,53.20
2018-12-19T14:55:35.257Z,52.73
2018-12-19T14:58:04.675Z,54.93
2018-12-19T15:00:33.385Z,59.47
2018-12-19T15:03:02.009Z,87.17
2018-12-19T15:05:30.721Z,58.90
2018-12-19T15:07:59.703Z,54.53
2018-12-19T15:10:28.692Z,37.40
2018-12-19T15:12:57.418Z,81.93
2018-12-19T15:15:26.081Z,67.00
2018-12-19T15:17:54.755Z,56.87
2018-12-19T15:20:23.435Z,57.73
2018-12-19T15:22:52.088Z,50.50
2018-12-19T15:25:20.806Z,68.00
2018-12-19T15:27:49.489Z,40.30
2018-12-19T15:30:18.232Z,68.77
2018-12-19T15:32:47.181Z,78.77
2018-12-19T15:35:15.909Z,96.60
2018-12-19T15:37:44.510Z,55.93
2018-12-19T15:40:13.276Z,71.57
2018-12-19T15:42:41.896Z,65.77
2018-12-19T15:45:10.868Z,59.20
2018-12-19T15:47:39.602Z,68.60
2018-12-19T15:50:08.908Z,70.00
2018-12-19T15:52:37.651Z,93.07
2018-12-19T15:55:06.407Z,75.63
2018-12-19T15:57:35.109Z,66.30
2018-12-19T16:00:04.565Z,57.73
2018-12-19T16:02:33.181Z,97.33
2018-12-19T16:05:01.780Z,99.63
2018-12-19T16:07:30.536Z,93.73
2018-12-19T16:09:59.201Z,69.67
2018-12-19T16:12:27.922Z,46.93
2018-12-19T16:14:56.684Z,102.30
2018-12-19T16:17:25.377Z,59.30
2018-12-19T16:19:54.125Z,91.70
2018-12-19T16:22:22.966Z,54.17
2018-12-19T16:24:51.669Z,103.70
2018-12-19T16:27:20.398Z,105.10
2018-12-19T16:29:49.271Z,95.87
2018-12-19T16:32:18.132Z,118.20
2018-12-19T16:34:46.912Z,102.60
2018-12-19T16:37:15.613Z,70.33
2018-12-19T16:39:44.548Z,81.57
2018-12-19T16:42:13.289Z,73.83
2018-12-19T16:44:42.025Z,99.63
2018-12-19T16:47:10.886Z,104.70
2018-12-19T16:49:39.677Z,58.73
2018-12-19T16:52:08.406Z,61.37
2018-12-19T16:54:37.043Z,105.20
2018-12-19T16:57:05.744Z,75.60
2018-12-19T16:59:34.436Z,84.87
2018-12-19T17:02:03.087Z,58.20
2018-12-19T17:04:31.799Z,94.67
2018-12-19T17:07:00.569Z,80.70
2018-12-19T17:09:29.307Z,111.10
2018-12-19T17:11:57.920Z,84.33
2018-12-19T17:14:26.667Z,54.60
2018-12-19T17:16:55.411Z,92.60
2018-12-19T17:19:24.125Z,70.23
2018-12-19T17:21:52.795Z,96.03
2018-12-19T17:24:25.690Z,95.87
2018-12-19T17:26:54.729Z,91.70
2018-12-19T17:29:23.473Z,49.60
2018-12-19T17:31:52.232Z,61.83
2018-12-19T17:34:24.538Z,60.73
2018-12-19T17:36:55.353Z,84.27
2018-12-19T17:39:24.046Z,42.67
2018-12-19T17:41:52.820Z,73.37
2018-12-19T17:44:21.513Z,54.67
2018-12-19T17:46:50.201Z,79.10
2018-12-19T17:49:18.938Z,54.87
2018-12-19T17:51:47.659Z,71.57
2018-12-19T17:54:16.294Z,76.30
2018-12-19T17:56:45.093Z,45.93
2018-12-19T17:59:13.892Z,53.43
2018-12-19T18:01:42.705Z,39.33
2018-12-19T18:04:11.418Z,58.57
2018-12-19T18:06:40.227Z,76.27
2018-12-19T18:09:08.977Z,57.00
2018-12-19T18:11:37.956Z,66.10
2018-12-19T18:14:07.052Z,37.07
2018-12-19T18:16:35.939Z,34.90
2018-12-19T18:19:04.807Z,53.40
2018-12-19T18:21:33.576Z,64.33
2018-12-19T18:24:02.411Z,66.00
2018-12-19T18:26:32.213Z,58.53
2018-12-19T18:29:00.918Z,48.57
2018-12-19T18:31:29.636Z,64.70
2018-12-19T18:33:58.280Z,38.40
2018-12-19T18:36:26.971Z,86.93
2018-12-19T18:38:55.643Z,89.67
2018-12-19T18:41:24.337Z,87.67
2018-12-19T18:43:52.989Z,102.67
2018-12-19T18:46:21.718Z,79.70
2018-12-19T18:50:14.774Z,80.50
2018-12-19T18:52:43.526Z,63.67
2018-12-19T18:55:12.270Z,95.10
2018-12-19T18:57:40.990Z,75.57
2018-12-19T19:00:10.326Z,59.93
2018-12-19T19:02:39.119Z,81.40
2018-12-19T19:05:07.952Z,54.27
2018-12-19T19:07:36.690Z,81.23
2018-12-19T19:10:05.737Z,77.83
2018-12-19T19:12:34.576Z,66.00
2018-12-19T19:15:03.434Z,54.47
2018-12-19T19:17:32.114Z,31.80
2018-12-19T19:20:00.826Z,58.37
2018-12-19T19:22:29.535Z,51.27
2018-12-19T19:24:58.237Z,49.67
2018-12-19T19:27:26.857Z,62.97
2018-12-19T19:29:55.592Z,69.87
2018-12-19T19:32:24.594Z,53.87
2018-12-19T19:34:53.383Z,61.53
2018-12-19T19:37:22.206Z,49.80
2018-12-19T19:39:51.194Z,57.23
2018-12-19T19:42:20.801Z,43.53
2018-12-19T19:44:50.485Z,39.77
2018-12-19T19:47:19.638Z,57.67
2018-12-19T19:49:48.556Z,40.30
2018-12-19T19:52:17.312Z,38.60
2018-12-19T19:54:46.109Z,50.20
2018-12-19T19:57:14.835Z,51.13
2018-12-19T19:59:43.692Z,66.50
2018-12-19T20:02:12.411Z,67.63
2018-12-19T20:04:41.209Z,70.23
2018-12-19T20:07:09.957Z,58.67
2018-12-19T20:09:38.903Z,84.00
2018-12-19T20:12:07.645Z,62.53
2018-12-19T20:14:36.502Z,75.43
2018-12-19T20:17:05.304Z,69.27
2018-12-19T20:19:34.009Z,63.33
2018-12-19T20:22:02.711Z,58.13
2018-12-19T20:24:31.399Z,50.03
2018-12-19T20:27:00.118Z,55.90
2018-12-19T20:29:28.841Z,61.80
2018-12-19T20:31:57.553Z,48.27
2018-12-19T20:34:26.317Z,66.43
2018-12-19T20:36:55.281Z,55.43
2018-12-19T20:39:24.025Z,59.87
2018-12-19T20:41:52.915Z,65.77
2018-12-19T20:44:21.697Z,57.10
2018-12-19T20:46:50.424Z,56.43
2018-12-19T20:49:19.418Z,37.97
2018-12-19T20:51:48.107Z,58.40
2018-12-19T20:54:16.821Z,45.17
2018-12-19T20:56:45.510Z,49.60
2018-12-19T20:59:14.305Z,46.13
2018-12-19T21:01:43.090Z,55.33
2018-12-19T21:04:12.454Z,53.80
2018-12-19T21:06:41.165Z,46.27
2018-12-19T21:09:10.085Z,54.30
2018-12-19T21:11:38.751Z,35.87
2018-12-19T21:14:07.586Z,56.37
2018-12-19T21:16:41.811Z,36.97
2018-12-19T21:19:10.547Z,55.30
2018-12-19T21:21:39.240Z,35.33
2018-12-19T21:24:07.927Z,39.40
2018-12-19T21:26:36.548Z,55.13
2018-12-19T21:29:05.346Z,38.13
2018-12-19T21:31:34.030Z,58.87
2018-12-19T21:34:02.861Z,50.70
2018-12-19T21:36:31.572Z,52.83
2018-12-19T21:39:00.488Z,51.67
2018-12-19T21:41:29.216Z,62.07
2018-12-19T21:43:57.961Z,54.47
2018-12-19T21:46:26.791Z,32.13
2018-12-19T21:48:55.524Z,55.63
2018-12-19T21:51:24.249Z,32.80
2018-12-19T21:53:52.915Z,62.60
2018-12-19T21:56:21.737Z,31.63
2018-12-19T21:58:50.511Z,27.93
2018-12-19T22:01:19.168Z,54.03
2018-12-19T22:03:47.954Z,40.40
2018-12-19T22:06:16.776Z,37.73
2018-12-19T22:08:45.424Z,41.90
2018-12-19T22:11:14.121Z,46.70
2018-12-19T22:13:43.058Z,43.13
2018-12-19T22:16:16.023Z,48.93
2018-12-19T22:18:48.112Z,33.87
2018-12-19T22:21:17.303Z,30.13
2018-12-19T22:23:45.937Z,55.10
2018-12-19T22:26:14.908Z,50.13
2018-12-19T22:28:43.891Z,44.67
2018-12-19T22:31:12.590Z,55.67
2018-12-19T22:33:41.396Z,56.70
2018-12-19T22:36:10.094Z,50.67
2018-12-19T22:38:38.870Z,39.50
2018-12-19T22:41:07.702Z,43.33
2018-12-19T22:43:36.549Z,43.23
2018-12-19T22:46:05.356Z,51.13
2018-12-19T22:48:34.434Z,22.80
2018-12-19T22:51:03.336Z,44.70
2018-12-19T22:53:32.205Z,61.67
2018-12-19T22:56:01.021Z,62.73
2018-12-19T22:58:29.797Z,55.27
2018-12-19T23:01:04.031Z,56.23
2018-12-19T23:03:38.299Z,59.40
2018-12-19T23:06:07.147Z,37.47
2018-12-19T23:08:35.820Z,56.23
2018-12-19T23:11:04.618Z,35.40
2018-12-19T23:13:33.458Z,64.20
2018-12-19T23:16:02.304Z,29.97
2018-12-19T23:18:31.005Z,32.37
2018-12-19T23:20:59.841Z,55.23
2018-12-19T23:23:28.733Z,51.80
2018-12-19T23:25:57.520Z,59.40
2018-12-19T23:28:26.381Z,49.27
2018-12-19T23:30:55.251Z,34.67
2018-12-19T23:33:23.957Z,58.53
2018-12-19T23:35:52.808Z,65.43
2018-12-19T23:38:21.563Z,56.97
2018-12-19T23:40:50.348Z,39.27
2018-12-19T23:43:19.120Z,59.70
2018-12-19T23:45:48.087Z,19.73
2018-12-19T23:48:16.770Z,55.30
2018-12-19T23:50:45.538Z,21.30
2018-12-19T23:53:14.672Z,24.53
2018-12-19T23:55:43.590Z,34.83
2018-12-19T23:58:12.340Z,62.27
